Map

Track Data

SID SEASON NUMBER BASIN SUBBASIN NAME ISO_TIME NATURE LAT LON WMO_WIND WMO_PRES WMO_AGENCY TRACK_TYPE DIST2LAND LANDFALL IFLAG USA_AGENCY USA_ATCF_ID USA_LAT USA_LON USA_RECORD USA_STATUS USA_WIND USA_PRES USA_SSHS USA_R34_NE USA_R34_SE USA_R34_SW USA_R34_NW USA_R50_NE USA_R50_SE USA_R50_SW USA_R50_NW USA_R64_NE USA_R64_SE USA_R64_SW USA_R64_NW USA_POCI USA_ROCI USA_RMW USA_EYE TOKYO_LAT TOKYO_LON TOKYO_GRADE TOKYO_WIND TOKYO_PRES TOKYO_R50_DIR TOKYO_R50_LONG TOKYO_R50_SHORT TOKYO_R30_DIR TOKYO_R30_LONG TOKYO_R30_SHORT TOKYO_LAND CMA_LAT CMA_LON CMA_CAT CMA_WIND CMA_PRES HKO_LAT HKO_LON HKO_CAT HKO_WIND HKO_PRES NEWDELHI_LAT NEWDELHI_LON NEWDELHI_GRADE NEWDELHI_WIND NEWDELHI_PRES NEWDELHI_CI NEWDELHI_DP NEWDELHI_POCI REUNION_LAT REUNION_LON REUNION_TYPE REUNION_WIND REUNION_PRES REUNION_TNUM REUNION_CI REUNION_RMW REUNION_R34_NE REUNION_R34_SE REUNION_R34_SW REUNION_R34_NW REUNION_R50_NE REUNION_R50_SE REUNION_R50_SW REUNION_R50_NW REUNION_R64_NE REUNION_R64_SE REUNION_R64_SW REUNION_R64_NW BOM_LAT BOM_LON BOM_TYPE BOM_WIND BOM_PRES BOM_TNUM BOM_CI BOM_RMW BOM_R34_NE BOM_R34_SE BOM_R34_SW BOM_R34_NW BOM_R50_NE BOM_R50_SE BOM_R50_SW BOM_R50_NW BOM_R64_NE BOM_R64_SE BOM_R64_SW BOM_R64_NW BOM_ROCI BOM_POCI BOM_EYE BOM_POS_METHOD BOM_PRES_METHOD NADI_LAT NADI_LON NADI_CAT NADI_WIND NADI_PRES WELLINGTON_LAT WELLINGTON_LON WELLINGTON_WIND WELLINGTON_PRES DS824_LAT DS824_LON DS824_STAGE DS824_WIND DS824_PRES TD9636_LAT TD9636_LON TD9636_STAGE TD9636_WIND TD9636_PRES TD9635_LAT TD9635_LON TD9635_WIND TD9635_PRES TD9635_ROCI NEUMANN_LAT NEUMANN_LON NEUMANN_CLASS NEUMANN_WIND NEUMANN_PRES MLC_LAT MLC_LON MLC_CLASS MLC_WIND MLC_PRES USA_GUST BOM_GUST BOM_GUST_PER REUNION_GUST REUNION_GUST_PER USA_SEAHGT USA_SEARAD_NE USA_SEARAD_SE USA_SEARAD_SW USA_SEARAD_NW STORM_SPEED STORM_DIR
1953362S11055 1954 85 SI MM NOT_NAMED 1953-12-27 18:00:00 TS -11.4000 55.3000 main 613 610 O________OO___ jtwc_sh SH011954 -11.4000 55.3000 -1 -11.4000 55.3000 TC -11.4000 55.3000 7 5 140
1953362S11055 1954 85 SI MM NOT_NAMED 1953-12-27 21:00:00 TS -11.5888 55.4605 main 628 625 P________PP___ SH011954 -11.6050 55.4700 -1 -11.6050 55.4700 TC -11.5563 55.4417 7 5 143
1953362S11055 1954 85 SI MM NOT_NAMED 1953-12-28 00:00:00 TS -11.7767 55.5856 main 633 627 O________OP___ jtwc_sh SH011954 -11.8000 55.6000 -1 -11.8000 55.6000 TC -11.7301 55.5568 7 4 155
1953362S11055 1954 85 SI MM NOT_NAMED 1953-12-28 03:00:00 TS -11.9696 55.6411 main 627 624 P________PP___ SH011954 -11.9850 55.6525 -1 -11.9850 55.6525 TC -11.9388 55.6185 7 3 172
1953362S11055 1954 85 SI MM NOT_NAMED 1953-12-28 06:00:00 TS -12.1000 55.6308 reunion main 624 608 O____O___OO___ jtwc_sh SH011954 -12.2000 55.6000 -1 -10.9000 56.0000 99 9.90000 -12.2000 55.6000 TC 25 -12.2000 55.6000 1 3 203
1953362S11055 1954 85 SI MM NOT_NAMED 1953-12-28 09:00:00 TS -12.2819 55.4994 main 608 581 P____P___PP___ SH011954 -12.4925 55.4376 -1 -10.9664 55.7807 99 -12.4925 55.4376 TC 25 -12.5184 55.4823 1 5 223
1953362S11055 1954 85 SI MM NOT_NAMED 1953-12-28 12:00:00 TS -12.4601 55.2915 main 581 558 O____P___OP___ jtwc_sh SH011954 -12.8000 55.2000 -1 -11.0372 55.5526 99 -12.8000 55.2000 TC 25 -12.8474 55.2786 1 5 232
1953362S11055 1954 85 SI MM NOT_NAMED 1953-12-28 15:00:00 TS -12.6161 55.0619 main 558 521 P____P___PP___ SH011954 -13.1100 54.9651 -1 -11.1167 55.3068 99 -13.1100 54.9651 TC 30 -13.1277 55.0105 1 6 237
1953362S11055 1954 85 SI MM NOT_NAMED 1953-12-28 18:00:00 TS -12.7774 54.7836 main 521 489 O____P___OO___ jtwc_sh SH011954 -13.3000 54.7000 -1 -11.2094 55.0345 99 -13.3000 54.7000 TC 35 -13.3000 54.7000 2 6 253
1953362S11055 1954 85 SI MM NOT_NAMED 1953-12-28 21:00:00 TS -12.7793 54.4983 main 489 460 P____P___PP___ SH011954 -13.2599 54.4224 -1 -11.3198 54.7267 99 -13.2599 54.4224 TC 35 -13.2774 54.4219 2 6 277
1953362S11055 1954 85 SI MM NOT_NAMED 1953-12-29 00:00:00 TS -12.6998 54.1696 main 460 421 O____P___OP___ jtwc_sh SH011954 -13.1000 54.1000 -1 -11.4522 54.3744 99 -13.1000 54.1000 TC 35 -13.1469 54.1041 2 7 283
1953362S11055 1954 85 SI MM NOT_NAMED 1953-12-29 03:00:00 TS -12.6159 53.7945 main 421 379 P____P___PP___ SH011954 -12.9424 53.7374 -1 -11.6108 53.9685 99 -12.9424 53.7374 TC 35 -12.9679 53.7344 2 8 281
1953362S11055 1954 85 SI MM NOT_NAMED 1953-12-29 06:00:00 TS -12.5500 53.3500 reunion main 382 330 O____O___OO___ jtwc_sh SH011954 -12.8000 53.3000 -1 -11.8000 53.5000 99 9.90000 -12.8000 53.3000 TC 35 -12.8000 53.3000 2 9 274
1953362S11055 1954 85 SI MM NOT_NAMED 1953-12-29 09:00:00 TS -12.5462 52.8262 main 319 264 P____P___PP___ SH011954 -12.7350 52.7801 -1 -12.0225 52.9636 99 -12.7350 52.7801 TC 35 -12.6922 52.7811 2 11 269
1953362S11055 1954 85 SI MM NOT_NAMED 1953-12-29 12:00:00 TS -12.5714 52.2431 main 253 200 O____P___OP___ jtwc_sh SH011954 -12.7000 52.2000 -1 -12.2753 52.3706 99 -12.7000 52.2000 TC 35 -12.6104 52.2018 2 12 268
1953362S11055 1954 85 SI MM NOT_NAMED 1953-12-29 15:00:00 TS -12.5957 51.6332 main 189 134 P____P___PP___ SH011954 -12.6275 51.5999 -1 -12.5543 51.7365 99 -12.6275 51.5999 TC 50 -12.5734 51.5966 2 12 266
1953362S11055 1954 85 SI MM NOT_NAMED 1953-12-29 18:00:00 TS -12.6638 51.0193 main 123 68 O____P___OO___ jtwc_sh SH011954 -12.6000 51.0000 -1 -12.8552 51.0770 99 -12.6000 51.0000 TC 65 -12.6000 51.0000 4 12 261
1953362S11055 1954 85 SI MM NOT_NAMED 1953-12-29 21:00:00 TS -12.7883 50.4325 main 58 0 P____P___PP___ SH011954 -12.6549 50.4350 -1 -13.1740 50.4078 99 -12.6549 50.4350 TC 65 -12.6694 50.4524 4 12 254
1953362S11055 1954 85 SI MM NOT_NAMED 1953-12-30 00:00:00 TS -12.9785 49.8661 main 0 0 O____P___OP___ jtwc_sh SH011954 -12.8000 49.9000 -1 -13.5069 49.7446 99 -12.8000 49.9000 TC 65 -12.8071 49.9197 4 12 248
1953362S11055 1954 85 SI MM NOT_NAMED 1953-12-30 03:00:00 TS -13.2190 49.3226 main 0 0 P____P___PP___ SH011954 -13.0049 49.3924 -1 -13.8500 49.1034 99 -13.0049 49.3924 TC 65 -13.0163 49.4021 4 12 242
1953362S11055 1954 85 SI MM NOT_NAMED 1953-12-30 06:00:00 TS -13.5250 48.8000 reunion main 0 0 O____O___OO___ jtwc_sh SH011954 -13.3000 48.9000 -1 -14.2000 48.5000 99 9.90000 -13.3000 48.9000 TC 65 -13.3000 48.9000 4 12 237
1953362S11055 1954 85 SI MM NOT_NAMED 1953-12-30 09:00:00 TS -13.8744 48.2891 main 0 0 P____P___PP___ SH011954 -13.6699 48.3925 -1 -14.5132 47.9650 99 -13.6699 48.3925 TC 50 -13.6447 48.4066 4 12 232
1953362S11055 1954 85 SI MM NOT_NAMED 1953-12-30 12:00:00 TS -14.2735 47.7965 main 0 0 O____P___OP___ jtwc_sh SH011954 -14.1000 47.9000 -1 -14.8344 47.4586 99 -14.1000 47.9000 TC 35 -14.0596 47.9274 4 12 229
1953362S11055 1954 85 SI MM NOT_NAMED 1953-12-30 15:00:00 TS -14.6928 47.3312 main 15 10 P____P___PP___ SH011954 -14.5424 47.4423 -1 -15.1667 46.9805 99 -14.5424 47.4423 TC 35 -14.5197 47.4595 4 12 226
1953362S11055 1954 85 SI MM NOT_NAMED 1953-12-30 18:00:00 TS -15.1283 46.8826 main 15 0 O____P___OO___ jtwc_sh SH011954 -15.0000 47.0000 -1 -15.5130 46.5302 99 -15.0000 47.0000 TC 35 -15.0000 47.0000 2 12 225
1953362S11055 1954 85 SI MM NOT_NAMED 1953-12-30 21:00:00 TS -15.5545 46.4323 main 0 0 P____P___PP___ SH011954 -15.4424 46.5498 -1 -15.8765 46.1074 99 -15.4424 46.5498 TC 35 -15.4565 46.5223 2 12 225
1953362S11055 1954 85 SI MM NOT_NAMED 1953-12-31 00:00:00 TS -15.9969 45.9916 main 0 0 O____P___OP___ jtwc_sh SH011954 -15.9000 46.1000 -1 -16.2602 45.7117 99 -15.9000 46.1000 TC 35 -15.9275 46.0548 2 12 223
1953362S11055 1954 85 SI MM NOT_NAMED 1953-12-31 03:00:00 TS -16.4654 45.5556 main 0 0 P____P___PP___ SH011954 -16.3925 45.6349 -1 -16.6670 45.3427 99 -16.3925 45.6349 TC 35 -16.4097 45.6098 2 13 220
1953362S11055 1954 85 SI MM NOT_NAMED 1953-12-31 06:00:00 TS -16.9500 45.1500 reunion main 0 0 O____O___OO___ jtwc_sh SH011954 -16.9000 45.2000 -1 -17.1000 45.0000 99 9.90000 -16.9000 45.2000 TC 35 -16.9000 45.2000 2 12 217
1953362S11055 1954 85 SI MM NOT_NAMED 1953-12-31 09:00:00 TS -17.4553 44.7701 main 0 0 P____P___PP___ SH011954 -17.3999 44.8273 -1 -17.6250 44.6153 99 -17.3999 44.8273 TC 35 -17.3966 44.8104 2 12 214
1953362S11055 1954 85 SI MM NOT_NAMED 1953-12-31 12:00:00 TS -17.9712 44.4281 main 0 0 O____P___OP___ jtwc_sh SH011954 -17.9000 44.5000 -1 -18.1852 44.2527 99 -17.9000 44.5000 TC 35 -17.8998 44.4599 2 12 211
1953362S11055 1954 85 SI MM NOT_NAMED 1953-12-31 15:00:00 TS -18.4915 44.1069 main 0 0 P____P___PP___ SH011954 -18.4000 44.1774 -1 -18.7631 43.9184 99 -18.4000 44.1774 TC 35 -18.4030 44.1543 2 12 209
1953362S11055 1954 85 SI MM NOT_NAMED 1953-12-31 18:00:00 TS -19.0103 43.8297 main 42 42 O____P___OO___ jtwc_sh SH011954 -18.9000 43.9000 -1 -19.3411 43.6187 99 -18.9000 43.9000 TC 35 -18.9000 43.9000 2 11 205
1953362S11055 1954 85 SI MM NOT_NAMED 1953-12-31 21:00:00 TS -19.5256 43.5999 main 77 77 P____P___PP___ SH011954 -19.4075 43.6699 -1 -19.9014 43.3601 99 -19.4075 43.6699 TC 35 -19.3859 43.6997 2 11 201
1953362S11055 1954 85 SI MM NOT_NAMED 1954-01-01 00:00:00 TS -20.0533 43.4020 main 85 70 O____P___OP___ jtwc_sh SH011954 -19.9000 43.5000 -1 -20.4264 43.1495 99 -19.9000 43.5000 TC 35 -19.8625 43.5426 2 11 198
1953362S11055 1954 85 SI MM NOT_NAMED 1954-01-01 03:00:00 TS -20.5700 43.2344 main 76 53 P____P___PP___ SH011954 -20.3600 43.3851 -1 -20.8985 42.9938 99 -20.3600 43.3851 TC 35 -20.3328 43.4143 2 11 197
1953362S11055 1954 85 SI MM NOT_NAMED 1954-01-01 06:00:00 TS -21.0857 43.0714 reunion main 53 51 O____O___OO___ jtwc_sh SH011954 -20.8000 43.3000 -1 -21.3000 42.9000 99 9.90000 -20.8000 43.3000 TC 35 -20.8000 43.3000 2 11 198
1953362S11055 1954 85 SI MM NOT_NAMED 1954-01-01 09:00:00 NR -21.6181 42.8726 main 56 46 _____P________ SH011954 -1 -21.6181 42.8726 99 TC 2 8 191
1953362S11055 1954 85 SI MM NOT_NAMED 1954-01-01 12:00:00 NR -21.8590 42.9060 main 42 30 _____P________ -1 -21.8590 42.9060 99 2 4 165
1953362S11055 1954 85 SI MM NOT_NAMED 1954-01-01 15:00:00 NR -22.0339 42.9916 main 30 15 _____P________ -1 -22.0339 42.9916 99 2 4 146
1953362S11055 1954 85 SI MM NOT_NAMED 1954-01-01 18:00:00 NR -22.1536 43.1208 main 10 0 _____P________ -1 -22.1536 43.1208 99 3 126
1953362S11055 1954 85 SI MM NOT_NAMED 1954-01-01 21:00:00 NR -22.2291 43.2851 main 0 0 _____P________ -1 -22.2291 43.2851 99 3 110
1953362S11055 1954 85 SI MM NOT_NAMED 1954-01-02 00:00:00 NR -22.2714 43.4755 main 0 0 _____P________ -1 -22.2714 43.4755 99 4 100
1953362S11055 1954 85 SI MM NOT_NAMED 1954-01-02 03:00:00 NR -22.2914 43.6834 main 0 0 _____P________ -1 -22.2914 43.6834 99 4 94
1953362S11055 1954 85 SI MM NOT_NAMED 1954-01-02 06:00:00 NR -22.3000 43.9000 reunion main 0 _____O________ -1 -22.3000 43.9000 99 9.90000 4 92

About IBTrACS Database

This database is a web-friendly format of International Best Track Archive for Climate Stewardship (IBTrACS), a global best track data archive curated by NOAA dating back to 1842.

Updated: 2021-10-08